Skip to main content
ORNL DAAC HomeNASA Home

DAAC Home > Get Data > Field Campaigns > Carbon in Arctic Reservoirs Vulnerability Experiment (CARVE) > Landing page

CARVE: L1 Daily Flight Path Geolocation and Aircraft Position Data, Alaska, 2012-2015

Overview

DOIhttps://doi.org/10.3334/ORNLDAAC/1425
Projects
Release Date2017-02-24
Usage482 downloads

Description

This data set provides high-frequency geolocation, time, height, pitch, roll, and heading information for the C-23 Sherpa aircraft during airborne campaigns over the Alaskan and Canadian Arctic as part of the Carbon in Arctic Reservoirs Vulnerability Experiment (CARVE). The data were collected in situ using the Digital Air Data System (DADS) onboard the aircraft and are presented at 1-second intervals throughout each flight. Flight campaigns took place from 2012 to 2015 between the months of March and November to enable investigation of both seasonal and inter-annual variability in atmospheric gas content. The measurements included in this data set are useful for matching aircraft position with the scientific data collected by other CARVE airborne instruments.

Science Keywords

  • SPECTRAL/ENGINEERING
  • PLATFORM CHARACTERISTICS
  • FLIGHT DATA LOGS

Citation

Download citation from Datacite
RISBibTexOther
Crosscite Citation Formatter
CARVE Science Team . 2017. CARVE: L1 Daily Flight Path Geolocation and Aircraft Position Data, Alaska, 2012-2015. ORNL DAAC, Oak Ridge, Tennessee, USA. https://doi.org/10.3334/ORNLDAAC/1425

See our Data Citations and Acknowledgements policy for more information.

Data Files

Sign in to download files.

Data File (Granule)SizeDatesLatLon
carve_DADS_L1_b23_20120523_20150621190727.nc 17.9MB 2012-05-23 to 2012-05-24 71.43 to 64.75-147.53 to -157.42
carve_DADS_L1_b23_20120524_20150621190929.nc 8.2MB 2012-05-24 68.61 to 64.80-147.49 to -153.72
carve_DADS_L1_b23_20120527_20150621191133.nc 16.0MB 2012-05-27 to 2012-05-28 65.17 to 62.92-147.50 to -161.05
carve_DADS_L1_b23_20120528_20150621191335.nc 15.9MB 2012-05-28 to 2012-05-29 65.03 to 62.85-147.57 to -159.23
carve_DADS_L1_b23_20120530_20150621191539.nc 8.9MB 2012-05-30 65.35 to 63.86-146.25 to -149.34
carve_DADS_L1_b23_20120601_20150621192327.nc 18.3MB 2012-06-01 to 2012-06-02 71.30 to 64.69-147.85 to -157.41
carve_DADS_L1_b23_20120618_20150621192529.nc 17.5MB 2012-06-18 to 2012-06-19 71.40 to 64.78-147.52 to -157.42
carve_DADS_L1_b23_20120619_20150621192732.nc 15.5MB 2012-06-19 to 2012-06-20 70.31 to 64.74-147.43 to -151.10
carve_DADS_L1_b23_20120621_20150621192936.nc 14.9MB 2012-06-21 to 2012-06-22 65.02 to 62.92-147.58 to -158.75
carve_DADS_L1_b23_20120622_20150621193138.nc 18.2MB 2012-06-22 to 2012-06-23 71.56 to 64.80-147.57 to -157.41
carve_DADS_L1_b23_20120624_20150621193342.nc 9.5MB 2012-06-24 65.29 to 63.87-145.71 to -149.38
carve_DADS_L1_b23_20120717_20150621193544.nc 12.4MB 2012-07-17 to 2012-07-18 66.97 to 64.15-144.18 to -150.91
carve_DADS_L1_b23_20120722_20150621193746.nc 17.2MB 2012-07-22 to 2012-07-23 71.44 to 64.80-147.50 to -157.42
carve_DADS_L1_b23_20120724_20150621193950.nc 9.8MB 2012-07-24 to 2012-07-25 66.91 to 64.34-145.12 to -149.85
carve_DADS_L1_b23_20120725_20150621194152.nc 16.2MB 2012-07-25 to 2012-07-26 65.03 to 62.62-147.58 to -160.23
carve_DADS_L1_b23_20120814_20150621194355.nc 18.9MB 2012-08-14 to 2012-08-15 65.01 to 60.75-147.54 to -164.14
carve_DADS_L1_b23_20120818_20150621194558.nc 6.9MB 2012-08-18 to 2012-08-19 65.19 to 64.10-147.58 to -156.32
carve_DADS_L1_b23_20120819_20150621194801.nc 14.1MB 2012-08-19 to 2012-08-20 71.29 to 64.80-147.58 to -157.46
carve_DADS_L1_b23_20120820_20150621195005.nc 8.1MB 2012-08-20 67.06 to 64.80-143.91 to -149.01
carve_DADS_L1_b23_20120821_20150621195207.nc 15.1MB 2012-08-21 to 2012-08-22 65.40 to 62.93-147.85 to -158.56
carve_DADS_L1_b23_20120822_20150621195409.nc 8.7MB 2012-08-22 66.73 to 64.79-143.66 to -149.34
carve_DADS_L1_b23_20120823_20150621195613.nc 15.6MB 2012-08-23 to 2012-08-24 71.30 to 64.80-147.58 to -157.50
carve_DADS_L1_b23_20120918_20150621195815.nc 4.4MB 2012-09-18 65.19 to 64.53-147.55 to -149.53
carve_DADS_L1_b23_20120918_20150621200017.nc 7.2MB 2012-09-18 to 2012-09-19 67.20 to 64.80-143.57 to -149.51
carve_DADS_L1_b23_20120919_20150621200220.nc 14.3MB 2012-09-19 to 2012-09-20 71.29 to 64.80-146.29 to -156.86
carve_DADS_L1_b23_20120921_20150621200426.nc 8.4MB 2012-09-21 to 2012-09-22 67.11 to 64.44-145.86 to -149.72
carve_DADS_L1_b23_20120922_20150621200628.nc 9.0MB 2012-09-22 66.32 to 64.40-144.53 to -150.21
carve_DADS_L1_b23_20120923_20150621200830.nc 7.7MB 2012-09-23 67.02 to 64.95-143.69 to -149.55
carve_DADS_L1_b23_20120924_20150621201032.nc 19.8MB 2012-09-24 to 2012-09-25 65.04 to 60.31-147.47 to -164.50
carve_DADS_L1_b23_20120926_20150621201236.nc 20.8MB 2012-09-26 to 2012-09-27 64.96 to 60.21-147.73 to -164.44
carve_DADS_L1_b23_20121001_20150621201447.nc 21.0MB 2012-10-01 to 2012-10-02 71.32 to 64.80-147.58 to -160.10
carve_DADS_L1_b23_20130402_20150621204854.nc 6.1MB 2013-04-02 to 2013-04-03 65.04 to 64.32-147.58 to -149.82
carve_DADS_L1_b23_20130403_20150621205056.nc 12.9MB 2013-04-03 to 2013-04-04 66.00 to 63.61-147.59 to -158.46
carve_DADS_L1_b23_20130404_20150621205258.nc 16.4MB 2013-04-04 to 2013-04-05 71.31 to 64.80-147.59 to -157.55
carve_DADS_L1_b23_20130405_20150621205502.nc 7.2MB 2013-04-05 66.63 to 64.80-144.03 to -149.56
carve_DADS_L1_b23_20130406_20150621205704.nc 15.9MB 2013-04-06 to 2013-04-07 65.01 to 60.30-147.59 to -164.30
carve_DADS_L1_b23_20130502_20150621205908.nc 12.7MB 2013-05-02 to 2013-05-03 65.89 to 63.49-147.58 to -158.53
carve_DADS_L1_b23_20130504_20150621210111.nc 16.7MB 2013-05-04 to 2013-05-05 65.02 to 60.32-147.70 to -164.30
carve_DADS_L1_b23_20130506_20150621210313.nc 14.3MB 2013-05-06 to 2013-05-07 67.20 to 64.53-141.69 to -152.20
carve_DADS_L1_b23_20130507_20150621210515.nc 13.9MB 2013-05-07 to 2013-05-08 70.45 to 64.75-145.65 to -152.01
carve_DADS_L1_b23_20130508_20150621210719.nc 17.2MB 2013-05-08 to 2013-05-09 65.05 to 60.30-147.58 to -164.30
carve_DADS_L1_b23_20130509_20150621210921.nc 14.7MB 2013-05-09 to 2013-05-10 71.30 to 64.80-147.56 to -157.49
carve_DADS_L1_b23_20130510_20150621211123.nc 13.8MB 2013-05-10 to 2013-05-11 66.60 to 63.25-147.57 to -158.49
carve_DADS_L1_b23_20130513_20150621211325.nc 12.8MB 2013-05-13 to 2013-05-14 66.49 to 63.00-147.59 to -158.76
carve_DADS_L1_b23_20130602_20150621211529.nc 18.1MB 2013-06-02 to 2013-06-03 66.94 to 63.49-147.57 to -160.81
carve_DADS_L1_b23_20130603_20150621211731.nc 7.5MB 2013-06-03 66.67 to 64.68-142.55 to -147.97
carve_DADS_L1_b23_20130606_20150621211934.nc 15.3MB 2013-06-06 to 2013-06-07 71.29 to 64.80-147.51 to -159.85
carve_DADS_L1_b23_20130607_20150621212138.nc 16.3MB 2013-06-07 to 2013-06-08 65.04 to 60.39-147.58 to -163.42
carve_DADS_L1_b23_20130608_20150621212340.nc 19.6MB 2013-06-08 to 2013-06-09 65.04 to 60.33-147.55 to -164.32
carve_DADS_L1_b23_20130609_20150621212542.nc 13.7MB 2013-06-09 to 2013-06-10 65.46 to 62.94-147.53 to -158.50
carve_DADS_L1_b23_20130611_20150621212749.nc 16.9MB 2013-06-11 to 2013-06-12 71.38 to 64.75-147.43 to -157.41
carve_DADS_L1_b23_20130703_20150621212949.nc 8.4MB 2013-07-03 66.91 to 64.76-143.30 to -149.54
carve_DADS_L1_b23_20130704_20150621213152.nc 7.6MB 2013-07-04 65.08 to 63.89-147.58 to -151.35
carve_DADS_L1_b23_20130705_20150621213356.nc 17.1MB 2013-07-05 to 2013-07-06 71.32 to 64.80-147.58 to -157.41
carve_DADS_L1_b23_20130707_20150621213801.nc 16.4MB 2013-07-07 to 2013-07-08 71.33 to 64.91-147.50 to -157.54
carve_DADS_L1_b23_20130709_20150621214004.nc 16.5MB 2013-07-09 to 2013-07-10 66.54 to 64.46-147.84 to -167.60
carve_DADS_L1_b23_20130711_20150621214206.nc 16.2MB 2013-07-11 to 2013-07-12 65.02 to 60.26-147.57 to -164.33
carve_DADS_L1_b23_20130712_20150621214409.nc 14.3MB 2013-07-12 to 2013-07-13 66.63 to 62.91-147.58 to -158.83
carve_DADS_L1_b23_20130802_20150621214613.nc 13.9MB 2013-08-02 to 2013-08-03 70.26 to 64.79-147.49 to -152.22
carve_DADS_L1_b23_20130803_20150621214815.nc 13.6MB 2013-08-03 to 2013-08-04 67.02 to 63.90-145.06 to -150.68
carve_DADS_L1_b23_20130804_20150621215017.nc 4.8MB 2013-08-04 66.37 to 64.80-147.34 to -149.57
carve_DADS_L1_b23_20130807_20150621215221.nc 17.3MB 2013-08-07 to 2013-08-08 65.08 to 62.92-147.54 to -160.85
carve_DADS_L1_b23_20130811_20150621215423.nc 14.1MB 2013-08-11 to 2013-08-12 70.59 to 64.80-147.58 to -157.55
carve_DADS_L1_b23_20130812_20150621215625.nc 17.5MB 2013-08-12 to 2013-08-13 64.89 to 62.95-147.76 to -158.88
carve_DADS_L1_b23_20130813_20150621215827.nc 16.7MB 2013-08-13 to 2013-08-14 66.74 to 64.45-147.58 to -168.11
carve_DADS_L1_b23_20130905_20150621220031.nc 7.9MB 2013-09-05 66.78 to 64.80-144.06 to -149.41
carve_DADS_L1_b23_20130906_20150621220233.nc 15.9MB 2013-09-06 to 2013-09-07 65.03 to 62.95-147.56 to -160.94
carve_DADS_L1_b23_20130907_20150621220436.nc 17.0MB 2013-09-07 to 2013-09-08 64.96 to 60.32-147.55 to -164.21
carve_DADS_L1_b23_20130910_20150621220640.nc 8.4MB 2013-09-10 65.40 to 64.64-147.56 to -150.86
carve_DADS_L1_b23_20130912_20150621220842.nc 8.0MB 2013-09-12 65.22 to 64.35-147.56 to -152.71
carve_DADS_L1_b23_20131024_20150621221044.nc 16.3MB 2013-10-24 to 2013-10-25 70.52 to 64.80-147.56 to -157.41
carve_DADS_L1_b23_20131025_20150621221248.nc 7.5MB 2013-10-25 65.35 to 64.19-147.56 to -150.77
carve_DADS_L1_b23_20131026_20150621221450.nc 7.7MB 2013-10-26 65.03 to 63.35-147.80 to -153.20
carve_DADS_L1_b23_20131027_20150621221652.nc 13.0MB 2013-10-27 to 2013-10-28 67.01 to 62.93-144.86 to -155.45
carve_DADS_L1_b23_20140503_20150621231953.nc 16.7MB 2014-05-03 to 2014-05-04 65.03 to 60.31-147.58 to -164.26
carve_DADS_L1_b23_20140522_20150621232359.nc 15.8MB 2014-05-22 to 2014-05-23 66.05 to 64.45-147.58 to -167.66
carve_DADS_L1_b23_20140523_20150621232601.nc 15.9MB 2014-05-23 to 2014-05-24 65.03 to 62.99-147.57 to -159.59
carve_DADS_L1_b23_20140524_20150621232803.nc 9.0MB 2014-05-24 65.04 to 62.93-147.54 to -154.41
carve_DADS_L1_b23_20140526_20150621233006.nc 14.3MB 2014-05-26 to 2014-05-27 66.95 to 63.00-143.61 to -154.39
carve_DADS_L1_b23_20140529_20150621233210.nc 8.8MB 2014-05-29 65.48 to 62.99-147.58 to -154.40
carve_DADS_L1_b23_20140603_20150621233412.nc 15.9MB 2014-06-03 to 2014-06-04 64.84 to 60.31-147.84 to -164.28
carve_DADS_L1_b23_20140604_20150621233616.nc 7.4MB 2014-06-04 67.08 to 64.80-147.57 to -151.96
carve_DADS_L1_b23_20140607_20150621233818.nc 13.4MB 2014-06-07 to 2014-06-08 65.17 to 62.81-147.57 to -155.53
carve_DADS_L1_b23_20140609_20150621234020.nc 15.9MB 2014-06-09 to 2014-06-10 68.85 to 64.74-133.08 to -148.07
carve_DADS_L1_b23_20140611_20150621234222.nc 14.9MB 2014-06-11 to 2014-06-12 64.85 to 60.32-147.82 to -164.33
carve_DADS_L1_b23_20140612_20150621234426.nc 15.4MB 2014-06-12 to 2014-06-13 65.92 to 64.48-147.58 to -165.47
carve_DADS_L1_b23_20140613_20150621234629.nc 13.3MB 2014-06-13 70.52 to 64.80-147.56 to -157.42
carve_DADS_L1_b23_20140614_20150621234837.nc 12.3MB 2014-06-14 70.27 to 64.85-147.54 to -151.96
carve_DADS_L1_b23_20140703_20150621235035.nc 16.1MB 2014-07-03 to 2014-07-04 65.02 to 60.29-147.58 to -164.29
carve_DADS_L1_b23_20140704_20150621235240.nc 16.7MB 2014-07-04 to 2014-07-05 71.04 to 64.81-147.58 to -157.41
carve_DADS_L1_b23_20140705_20150621235442.nc 17.8MB 2014-07-05 to 2014-07-06 71.36 to 64.81-147.58 to -157.98
carve_DADS_L1_b23_20140706_20150621235644.nc 13.2MB 2014-07-06 to 2014-07-07 65.02 to 62.98-147.58 to -160.84
carve_DADS_L1_b23_20140710_20150621235846.nc 15.1MB 2014-07-10 to 2014-07-11 69.44 to 64.80-131.75 to -147.89
carve_DADS_L1_b23_20140711_20150622000050.nc 15.4MB 2014-07-11 to 2014-07-12 69.21 to 64.79-133.01 to -147.96
carve_DADS_L1_b23_20140712_20150622000252.nc 7.9MB 2014-07-12 65.16 to 62.73-147.58 to -155.09
carve_DADS_L1_b23_20140806_20150622000455.nc 6.5MB 2014-08-06 67.10 to 64.73-147.76 to -151.91
carve_DADS_L1_b23_20140809_20150622000659.nc 12.5MB 2014-08-09 to 2014-08-10 65.03 to 62.99-147.57 to -160.85
carve_DADS_L1_b23_20140810_20150622000901.nc 14.6MB 2014-08-10 to 2014-08-11 66.99 to 63.00-147.57 to -159.07
carve_DADS_L1_b23_20140811_20150622001105.nc 7.2MB 2014-08-11 67.04 to 64.81-145.07 to -149.16
carve_DADS_L1_b23_20140812_20150622001307.nc 7.6MB 2014-08-12 64.94 to 63.00-147.61 to -154.40
carve_DADS_L1_b23_20140813_20150622001509.nc 7.7MB 2014-08-13 65.25 to 64.10-147.57 to -155.54
carve_DADS_L1_b23_20140814_20150622001712.nc 8.2MB 2014-08-14 to 2014-08-15 65.02 to 62.85-147.58 to -154.90
carve_DADS_L1_b23_20140903_20150622001914.nc 7.2MB 2014-09-03 67.05 to 64.78-145.40 to -149.09
carve_DADS_L1_b23_20140904_20150622002118.nc 15.9MB 2014-09-04 to 2014-09-05 65.01 to 60.30-147.58 to -164.28
carve_DADS_L1_b23_20140905_20150622002320.nc 13.3MB 2014-09-05 to 2014-09-06 70.48 to 64.81-147.57 to -162.98
carve_DADS_L1_b23_20140906_20150622002522.nc 15.6MB 2014-09-06 to 2014-09-07 71.34 to 64.81-147.54 to -157.43
carve_DADS_L1_b23_20140907_20150622002726.nc 13.7MB 2014-09-07 to 2014-09-08 70.20 to 64.81-147.57 to -156.46
carve_DADS_L1_b23_20140909_20150622002928.nc 15.7MB 2014-09-09 to 2014-09-10 69.47 to 64.76-132.21 to -147.93
carve_DADS_L1_b23_20140911_20150622003130.nc 12.5MB 2014-09-11 65.02 to 63.01-147.58 to -154.46
carve_DADS_L1_b23_20141002_20150622003334.nc 8.5MB 2014-10-02 65.05 to 62.95-147.55 to -154.46
carve_DADS_L1_b23_20141003_20150622003537.nc 14.3MB 2014-10-03 to 2014-10-04 65.02 to 60.36-147.58 to -164.01
carve_DADS_L1_b23_20141005_20150622003739.nc 13.1MB 2014-10-05 to 2014-10-06 65.07 to 63.00-147.50 to -160.82
carve_DADS_L1_b23_20141006_20150622003941.nc 14.1MB 2014-10-06 to 2014-10-07 64.96 to 62.99-147.80 to -160.83
carve_DADS_L1_b23_20141007_20150622004145.nc 14.1MB 2014-10-07 to 2014-10-08 64.92 to 60.30-147.65 to -164.29
carve_DADS_L1_b23_20141009_20150622004347.nc 17.7MB 2014-10-09 to 2014-10-10 65.48 to 64.50-147.57 to -166.92
carve_DADS_L1_b23_20141104_20150622004558.nc 6.4MB 2014-11-04 to 2014-11-05 65.22 to 63.01-147.56 to -154.42
carve_DADS_L1_b23_20141105_20150622004754.nc 11.0MB 2014-11-05 to 2014-11-06 65.03 to 63.00-147.56 to -160.82
carve_DADS_L1_b23_20141106_20150622004956.nc 15.1MB 2014-11-06 to 2014-11-07 65.02 to 60.29-147.58 to -164.31
carve_DADS_L1_b23_20141107_20150622005158.nc 12.4MB 2014-11-07 to 2014-11-08 70.55 to 64.80-147.58 to -157.41
carve_DADS_L1_b23_20141108_20150622005402.nc 8.0MB 2014-11-08 65.03 to 62.81-147.57 to -154.65
carve_DADS_L1_b23_20141109_20150622005605.nc 8.5MB 2014-11-09 65.21 to 63.79-147.57 to -152.23
carve_DADS_L1_b23_20150409_20150622011057.nc 6.5MB 2015-04-09 66.70 to 64.73-143.50 to -149.42
carve_DADS_L1_b23_20150410_20150622011259.nc 13.2MB 2015-04-10 to 2015-04-11 65.02 to 62.99-147.57 to -160.86
carve_DADS_L1_b23_20150413_20150622011503.nc 15.1MB 2015-04-13 to 2015-04-14 65.00 to 60.33-147.59 to -164.21
carve_DADS_L1_b23_20150414_20150622011716.nc 14.8MB 2015-04-14 to 2015-04-15 70.49 to 64.81-147.59 to -157.45
carve_DADS_L1_b23_20150415_20150622011910.nc 6.9MB 2015-04-15 65.00 to 62.93-147.59 to -154.53
carve_DADS_L1_b23_20150502_20150622012112.nc 7.5MB 2015-05-02 67.01 to 64.81-143.71 to -149.37
carve_DADS_L1_b23_20150503_20150622012314.nc 6.4MB 2015-05-03 65.02 to 62.81-147.59 to -154.94
carve_DADS_L1_b23_20150504_20150622012518.nc 12.3MB 2015-05-04 to 2015-05-05 64.85 to 63.00-147.82 to -160.85
carve_DADS_L1_b23_20150505_20150622012720.nc 15.2MB 2015-05-05 to 2015-05-06 64.85 to 60.30-147.82 to -164.47
carve_DADS_L1_b23_20150506_20150622012922.nc 14.4MB 2015-05-06 to 2015-05-07 65.99 to 62.99-147.84 to -160.88
carve_DADS_L1_b23_20150511_20150622013127.nc 6.6MB 2015-05-11 65.02 to 62.85-147.59 to -154.89
carve_DADS_L1_b23_20150512_20150622013329.nc 7.1MB 2015-05-12 66.59 to 64.79-147.60 to -155.87
carve_DADS_L1_b23_20150513_20150622013531.nc 8.2MB 2015-05-13 67.07 to 64.79-143.69 to -147.96
carve_DADS_L1_b23_20150602_20150622013733.nc 14.1MB 2015-06-02 to 2015-06-03 65.01 to 62.98-147.59 to -160.83
carve_DADS_L1_b23_20150603_20150622013937.nc 16.9MB 2015-06-03 to 2015-06-04 66.93 to 64.67-147.81 to -168.07
carve_DADS_L1_b23_20150604_20150622014139.nc 15.2MB 2015-06-04 to 2015-06-05 65.01 to 60.31-147.59 to -164.42
carve_DADS_L1_b23_20150606_20150622014341.nc 14.2MB 2015-06-06 to 2015-06-07 64.93 to 60.27-147.86 to -164.41
carve_DADS_L1_b23_20150607_20150622014544.nc 16.3MB 2015-06-07 to 2015-06-08 71.32 to 64.79-147.58 to -157.80
carve_DADS_L1_b23_20150608_20150622014747.nc 7.2MB 2015-06-08 67.02 to 64.81-143.72 to -148.47
carve_DADS_L1_b23_20150610_20150622014950.nc 15.5MB 2015-06-10 to 2015-06-11 69.27 to 64.73-133.13 to -148.10
carve_DADS_L1_b23_20150612_20150622015154.nc 6.5MB 2015-06-12 64.87 to 63.26-147.79 to -154.15
carve_DADS_L1_b23_20150613_20150622015356.nc 7.6MB 2015-06-13 67.02 to 64.68-143.69 to -149.24
carve_DADS_L1_b23_20150614_20150622015600.nc 14.9MB 2015-06-14 to 2015-06-15 65.01 to 62.98-147.59 to -160.82
carve_DADS_L1_b23_20150615_20150622015802.nc 15.7MB 2015-06-15 to 2015-06-16 70.25 to 64.81-147.59 to -156.03
carve_DADS_L1_b23_20150703_20150705173448.nc 3.0MB 2015-07-03 65.02 to 63.41-147.59 to -152.87
carve_DADS_L1_b23_20150704_20150705204410.nc 12.7MB 2015-07-04 to 2015-07-05 70.65 to 64.83-147.58 to -157.50
carve_DADS_L1_b23_20150705_20150706173951.nc 13.2MB 2015-07-05 to 2015-07-06 71.30 to 65.54-148.85 to -157.64
carve_DADS_L1_b23_20150706_20150707204640.nc 14.6MB 2015-07-06 to 2015-07-07 70.88 to 64.81-147.58 to -157.54
carve_DADS_L1_b23_20150710_20150711182615.nc 17.0MB 2015-07-10 to 2015-07-11 69.06 to 64.78-147.59 to -167.48
carve_DADS_L1_b23_20150711_20150712191214.nc 15.6MB 2015-07-11 to 2015-07-12 65.01 to 58.84-147.59 to -158.52
carve_DADS_L1_b23_20150713_20150714152420.nc 8.0MB 2015-07-13 67.07 to 64.78-143.51 to -150.00
carve_DADS_L1_b23_20150714_20150715053104.nc 6.9MB 2015-07-14 67.00 to 64.81-143.69 to -149.31
carve_DADS_L1_b23_20150802_20150803171015.nc 14.1MB 2015-08-02 to 2015-08-03 64.87 to 58.88-147.80 to -158.52
carve_DADS_L1_b23_20150803_20150804170332.nc 6.9MB 2015-08-03 65.03 to 62.94-147.58 to -154.48
carve_DADS_L1_b23_20150804_20150805174843.nc 13.9MB 2015-08-04 to 2015-08-05 65.01 to 60.29-147.58 to -164.29
carve_DADS_L1_b23_20150805_20150806212647.nc 15.1MB 2015-08-05 to 2015-08-06 65.02 to 63.00-147.58 to -158.77
carve_DADS_L1_b23_20150806_20150807192201.nc 14.8MB 2015-08-06 to 2015-08-07 66.04 to 64.51-147.54 to -166.49
carve_DADS_L1_b23_20150808_20150809173231.nc 12.2MB 2015-08-08 to 2015-08-09 69.52 to 64.82-132.24 to -147.84
carve_DADS_L1_b23_20150811_20150812045224.nc 7.5MB 2015-08-11 67.03 to 64.80-143.11 to -149.41
carve_DADS_L1_b23_20150812_20150813183658.nc 14.7MB 2015-08-12 to 2015-08-13 71.30 to 64.80-147.57 to -157.54
carve_DADS_L1_b23_20150813_20150814182311.nc 16.9MB 2015-08-13 to 2015-08-14 69.53 to 64.75-132.28 to -148.11
carve_DADS_L1_b23_20150814_20150815145455.nc 14.6MB 2015-08-14 to 2015-08-15 65.03 to 62.98-147.57 to -160.83
carve_DADS_L1_b23_20150815_20150817024052.nc 7.5MB 2015-08-15 67.03 to 64.79-143.61 to -149.12
carve_DADS_L1_b23_20150903_20150904180537.nc 7.5MB 2015-09-03 67.02 to 64.79-143.71 to -149.17
carve_DADS_L1_b23_20150904_20150905174511.nc 14.0MB 2015-09-04 to 2015-09-05 66.89 to 64.62-147.58 to -162.69
carve_DADS_L1_b23_20150905_20150906170452.nc 7.5MB 2015-09-05 69.69 to 64.79-147.58 to -149.80
carve_DADS_L1_b23_20150906_20150907155447.nc 7.0MB 2015-09-06 66.70 to 64.61-147.58 to -157.06
carve_DADS_L1_b23_20150907_20150909033427.nc 7.6MB 2015-09-07 67.06 to 64.77-143.72 to -149.15
carve_DADS_L1_b23_20150908_20150909180557.nc 11.1MB 2015-09-08 66.60 to 64.54-147.58 to -165.26
carve_DADS_L1_b23_20150915_20150916160037.nc 17.7MB 2015-09-15 to 2015-09-16 64.93 to 62.99-147.61 to -160.85
carve_DADS_L1_b23_20151005_20151006154603.nc 9.8MB 2015-10-05 64.91 to 62.72-147.80 to -155.61
carve_DADS_L1_b23_20151006_20151007140252.nc 7.5MB 2015-10-06 65.01 to 62.63-141.57 to -147.94
carve_DADS_L1_b23_20151007_20151008170014.nc 13.6MB 2015-10-07 to 2015-10-08 64.92 to 60.33-147.62 to -164.21
carve_DADS_L1_b23_20151008_20151009201104.nc 13.2MB 2015-10-08 to 2015-10-09 65.03 to 62.98-147.57 to -160.84
carve_DADS_L1_b23_20151009_20151010170507.nc 11.3MB 2015-10-09 69.10 to 64.77-133.08 to -147.92
carve_DADS_L1_b23_20151011_20151012053024.nc 6.5MB 2015-10-11 66.66 to 64.79-143.70 to -149.04
carve_DADS_L1_b23_20151012_20151013161000.nc 13.8MB 2015-10-12 to 2015-10-13 70.48 to 64.81-147.59 to -157.52
carve_DADS_L1_b23_20151014_20151015162729.nc 14.8MB 2015-10-14 to 2015-10-15 65.03 to 60.30-147.58 to -164.66
carve_DADS_L1_b23_20151015_20151016155112.nc 13.6MB 2015-10-15 to 2015-10-16 67.03 to 62.97-143.70 to -154.42
carve_DADS_L1_b23_20151016_20151017163242.nc 13.0MB 2015-10-16 to 2015-10-17 70.47 to 64.79-147.58 to -157.50
carve_DADS_L1_b23_20151103_20151104185608.nc 12.1MB 2015-11-03 to 2015-11-04 70.21 to 64.79-147.62 to -151.88
carve_DADS_L1_b23_20151105_20151107025050.nc 13.2MB 2015-11-05 to 2015-11-06 70.55 to 64.80-147.27 to -157.59
carve_DADS_L1_b23_20151110_20151111155852.nc 7.4MB 2015-11-10 65.05 to 63.60-144.00 to -152.17
carve_DADS_L1_b23_20151112_20151113184127.nc 13.1MB 2015-11-12 to 2015-11-13 67.03 to 62.98-143.70 to -154.97

Companion Files

Expand for companion files
Toggle Companion Files

Sign in to download files.

Dataset has 1 companion files.

  • CARVE_L1_FlightPath.pdf

Advanced Data Access through THREDDS Data Sever